Terminal Aerodrome Forecast
Issued by NWS

Home | Current Version | Previous Version | Text Only | Print | Product List | Glossary On
Versions: 1 2 3 4 5 6 7 8 9 10 11 12 13 14 15 16 17
000
FTUS45 KBYZ 160525
TAFLVM
TAF
KLVM 160525Z 1606/1706 25025G30KT P6SM VCSH OVC080
     FM161000 25016KT 4SM -SN BR OVC040
     FM161500 04008KT 3/4SM -SN BR OVC012
     FM161900 05010KT 4SM -SN BR OVC025
     FM162300 21010KT P6SM BKN050=

USA.gov is the U.S. government's official web portal to all federal, state and local government web resources and services.